sensor_id;sensor_type;location;lat;lon;timestamp;pressure;altitude;pressure_sealevel;temperature;humidity
52975;BME280;38839;45.186;5.720;2023-06-14T00:00:17;98509.03;;;19.14;100.00
52975;BME280;38839;45.186;5.720;2023-06-14T00:02:42;98517.81;;;19.15;100.00
52975;BME280;38839;45.186;5.720;2023-06-14T00:05:08;98517.81;;;19.15;100.00
52975;BME280;38839;45.186;5.720;2023-06-14T00:07:38;98512.59;;;19.13;100.00
52975;BME280;38839;45.186;5.720;2023-06-14T00:10:07;98504.94;;;19.07;100.00
52975;BME280;38839;45.186;5.720;2023-06-14T00:12:33;98503.09;;;19.09;100.00
52975;BME280;38839;45.186;5.720;2023-06-14T00:14:58;98512.59;;;19.13;100.00
52975;BME280;38839;45.186;5.720;2023-06-14T00:17:23;98502.00;;;19.13;100.00
52975;BME280;38839;45.186;5.720;2023-06-14T00:19:49;98504.75;;;19.12;100.00
52975;BME280;38839;45.186;5.720;2023-06-14T00:22:15;98498.44;;;19.14;100.00
52975;BME280;38839;45.186;5.720;2023-06-14T00:24:40;98495.03;;;19.12;100.00
52975;BME280;38839;45.186;5.720;2023-06-14T00:27:06;98485.59;;;19.06;100.00
52975;BME280;38839;45.186;5.720;2023-06-14T00:29:31;98484.75;;;19.06;100.00
52975;BME280;38839;45.186;5.720;2023-06-14T00:31:57;98480.06;;;19.11;100.00
52975;BME280;38839;45.186;5.720;2023-06-14T00:34:22;98475.56;;;19.13;100.00
52975;BME280;38839;45.186;5.720;2023-06-14T00:36:47;98484.44;;;19.12;100.00
52975;BME280;38839;45.186;5.720;2023-06-14T00:39:13;98491.59;;;19.10;100.00
52975;BME280;38839;45.186;5.720;2023-06-14T00:41:39;98480.00;;;19.13;100.00
52975;BME280;38839;45.186;5.720;2023-06-14T00:44:05;98482.59;;;19.14;100.00
52975;BME280;38839;45.186;5.720;2023-06-14T00:46:30;98482.72;;;19.11;100.00
52975;BME280;38839;45.186;5.720;2023-06-14T00:48:56;98479.94;;;19.14;100.00
52975;BME280;38839;45.186;5.720;2023-06-14T00:51:23;98483.38;;;19.16;100.00
52975;BME280;38839;45.186;5.720;2023-06-14T00:53:50;98489.56;;;19.15;100.00
52975;BME280;38839;45.186;5.720;2023-06-14T00:56:16;98480.47;;;19.21;100.00
52975;BME280;38839;45.186;5.720;2023-06-14T00:58:41;98472.84;;;19.15;100.00
52975;BME280;38839;45.186;5.720;2023-06-14T01:01:07;98474.41;;;19.19;100.00
52975;BME280;38839;45.186;5.720;2023-06-14T01:03:33;98478.84;;;19.18;100.00
52975;BME280;38839;45.186;5.720;2023-06-14T01:06:15;98477.00;;;19.20;100.00
52975;BME280;38839;45.186;5.720;2023-06-14T01:09:01;98476.03;;;19.21;100.00
52975;BME280;38839;45.186;5.720;2023-06-14T01:11:41;98476.34;;;19.15;100.00
52975;BME280;38839;45.186;5.720;2023-06-14T01:14:12;98477.22;;;19.16;100.00
52975;BME280;38839;45.186;5.720;2023-06-14T01:16:38;98475.56;;;19.13;100.00
52975;BME280;38839;45.186;5.720;2023-06-14T01:19:05;98479.00;;;19.15;100.00
52975;BME280;38839;45.186;5.720;2023-06-14T01:21:31;98479.16;;;19.12;100.00
52975;BME280;38839;45.186;5.720;2023-06-14T01:24:02;98473.81;;;19.14;100.00
52975;BME280;38839;45.186;5.720;2023-06-14T01:26:28;98471.53;;;19.23;100.00
52975;BME280;38839;45.186;5.720;2023-06-14T01:28:54;98481.81;;;19.29;100.00
52975;BME280;38839;45.186;5.720;2023-06-14T01:31:23;98483.84;;;19.24;100.00
52975;BME280;38839;45.186;5.720;2023-06-14T01:33:50;98483.06;;;19.22;100.00
52975;BME280;38839;45.186;5.720;2023-06-14T01:36:18;98489.38;;;19.20;100.00
52975;BME280;38839;45.186;5.720;2023-06-14T01:38:44;98488.41;;;19.21;100.00
52975;BME280;38839;45.186;5.720;2023-06-14T01:41:11;98489.44;;;19.18;100.00
52975;BME280;38839;45.186;5.720;2023-06-14T01:43:38;98489.72;;;19.12;100.00
52975;BME280;38839;45.186;5.720;2023-06-14T01:46:04;98489.66;;;19.14;100.00
52975;BME280;38839;45.186;5.720;2023-06-14T01:48:31;98496.66;;;19.15;100.00
52975;BME280;38839;45.186;5.720;2023-06-14T01:50:56;98493.00;;;19.17;100.00
52975;BME280;38839;45.186;5.720;2023-06-14T01:53:22;98502.00;;;19.13;100.00
52975;BME280;38839;45.186;5.720;2023-06-14T01:55:48;98497.66;;;19.12;100.00
52975;BME280;38839;45.186;5.720;2023-06-14T01:58:15;98505.59;;;19.12;100.00
52975;BME280;38839;45.186;5.720;2023-06-14T02:00:42;98501.44;;;19.06;100.00
52975;BME280;38839;45.186;5.720;2023-06-14T02:03:09;98498.56;;;19.11;100.00
52975;BME280;38839;45.186;5.720;2023-06-14T02:05:34;98505.59;;;19.12;100.00
52975;BME280;38839;45.186;5.720;2023-06-14T02:08:00;98503.88;;;19.11;100.00
52975;BME280;38839;45.186;5.720;2023-06-14T02:10:25;98505.59;;;19.12;100.00
52975;BME280;38839;45.186;5.720;2023-06-14T02:12:51;98503.44;;;19.20;100.00
52975;BME280;38839;45.186;5.720;2023-06-14T02:15:17;98503.03;;;19.10;100.00
52975;BME280;38839;45.186;5.720;2023-06-14T02:17:46;98498.88;;;19.05;100.00
52975;BME280;38839;45.186;5.720;2023-06-14T02:20:15;98508.38;;;19.09;100.00
52975;BME280;38839;45.186;5.720;2023-06-14T02:22:41;98510.34;;;19.05;100.00
52975;BME280;38839;45.186;5.720;2023-06-14T02:25:07;98513.81;;;19.06;100.00
52975;BME280;38839;45.186;5.720;2023-06-14T02:27:33;98512.88;;;19.07;100.00
52975;BME280;38839;45.186;5.720;2023-06-14T02:29:59;98509.31;;;19.08;100.00
52975;BME280;38839;45.186;5.720;2023-06-14T02:32:25;98510.09;;;19.10;100.00
52975;BME280;38839;45.186;5.720;2023-06-14T02:34:51;98505.91;;;19.06;100.00
52975;BME280;38839;45.186;5.720;2023-06-14T02:37:18;98511.47;;;19.00;100.00
52975;BME280;38839;45.186;5.720;2023-06-14T02:39:44;98515.91;;;18.99;100.00
52975;BME280;38839;45.186;5.720;2023-06-14T02:42:09;98514.25;;;18.97;100.00
52975;BME280;38839;45.186;5.720;2023-06-14T02:44:35;98514.25;;;18.97;100.00
52975;BME280;38839;45.186;5.720;2023-06-14T02:47:01;98518.47;;;19.01;100.00
52975;BME280;38839;45.186;5.720;2023-06-14T02:49:26;98509.19;;;18.92;100.00
52975;BME280;38839;45.186;5.720;2023-06-14T02:51:52;98514.19;;;18.98;100.00
52975;BME280;38839;45.186;5.720;2023-06-14T02:54:17;98514.69;;;18.87;100.00
52975;BME280;38839;45.186;5.720;2023-06-14T02:56:43;98512.00;;;18.89;100.00
52975;BME280;38839;45.186;5.720;2023-06-14T02:59:08;98506.06;;;18.84;100.00
52975;BME280;38839;45.186;5.720;2023-06-14T03:01:34;98510.19;;;18.70;100.00
52975;BME280;38839;45.186;5.720;2023-06-14T03:04:01;98510.38;;;18.66;100.00
52975;BME280;38839;45.186;5.720;2023-06-14T03:06:28;98517.38;;;18.67;100.00
52975;BME280;38839;45.186;5.720;2023-06-14T03:08:55;98515.59;;;18.67;100.00
52975;BME280;38839;45.186;5.720;2023-06-14T03:11:24;98519.00;;;18.69;100.00
52975;BME280;38839;45.186;5.720;2023-06-14T03:13:50;98529.16;;;18.60;100.00
52975;BME280;38839;45.186;5.720;2023-06-14T03:16:16;98529.44;;;18.54;100.00
52975;BME280;38839;45.186;5.720;2023-06-14T03:18:44;98521.31;;;18.58;100.00
52975;BME280;38839;45.186;5.720;2023-06-14T03:21:10;98519.53;;;18.59;100.00
52975;BME280;38839;45.186;5.720;2023-06-14T03:23:36;98524.00;;;18.57;100.00
52975;BME280;38839;45.186;5.720;2023-06-14T03:26:02;98516.03;;;18.58;100.00
52975;BME280;38839;45.186;5.720;2023-06-14T03:28:27;98518.06;;;18.52;100.00
52975;BME280;38839;45.186;5.720;2023-06-14T03:30:52;98517.88;;;18.56;100.00
52975;BME280;38839;45.186;5.720;2023-06-14T03:33:18;98517.72;;;18.59;100.00
52975;BME280;38839;45.186;5.720;2023-06-14T03:35:43;98513.00;;;18.66;100.00
52975;BME280;38839;45.186;5.720;2023-06-14T03:38:09;98511.44;;;18.62;100.00
52975;BME280;38839;45.186;5.720;2023-06-14T03:40:34;98511.59;;;18.59;100.00
52975;BME280;38839;45.186;5.720;2023-06-14T03:43:00;98526.16;;;18.67;100.00
52975;BME280;38839;45.186;5.720;2023-06-14T03:45:25;98518.97;;;18.71;100.00
52975;BME280;38839;45.186;5.720;2023-06-14T03:47:50;98512.66;;;18.74;100.00
52975;BME280;38839;45.186;5.720;2023-06-14T03:50:17;98518.00;;;18.72;100.00
52975;BME280;38839;45.186;5.720;2023-06-14T03:52:43;98518.78;;;18.74;100.00
52975;BME280;38839;45.186;5.720;2023-06-14T03:55:09;98514.28;;;18.76;100.00
52975;BME280;38839;45.186;5.720;2023-06-14T03:57:35;98518.00;;;18.72;100.00
52975;BME280;38839;45.186;5.720;2023-06-14T04:00:01;98512.59;;;18.75;100.00
52975;BME280;38839;45.186;5.720;2023-06-14T04:02:26;98519.75;;;18.73;100.00
52975;BME280;38839;45.186;5.720;2023-06-14T04:04:54;98514.22;;;18.78;100.00
52975;BME280;38839;45.186;5.720;2023-06-14T04:07:20;98518.53;;;18.80;100.00
52975;BME280;38839;45.186;5.720;2023-06-14T04:09:46;98517.72;;;18.78;100.00
52975;BME280;38839;45.186;5.720;2023-06-14T04:12:12;98527.34;;;18.81;100.00
52975;BME280;38839;45.186;5.720;2023-06-14T04:14:39;98528.03;;;18.84;100.00
52975;BME280;38839;45.186;5.720;2023-06-14T04:17:04;98533.31;;;18.84;100.00
52975;BME280;38839;45.186;5.720;2023-06-14T04:19:30;98532.00;;;18.74;100.00
52975;BME280;38839;45.186;5.720;2023-06-14T04:21:55;98538.00;;;18.78;100.00
52975;BME280;38839;45.186;5.720;2023-06-14T04:24:21;98542.97;;;18.85;100.00
52975;BME280;38839;45.186;5.720;2023-06-14T04:26:49;98537.41;;;18.92;100.00
52975;BME280;38839;45.186;5.720;2023-06-14T04:29:15;98538.63;;;19.03;100.00
52975;BME280;38839;45.186;5.720;2023-06-14T04:31:45;98551.13;;;19.00;100.00
52975;BME280;38839;45.186;5.720;2023-06-14T04:34:11;98559.06;;;19.00;100.00
52975;BME280;38839;45.186;5.720;2023-06-14T04:36:41;98566.47;;;19.10;100.00
52975;BME280;38839;45.186;5.720;2023-06-14T04:39:17;98561.19;;;19.10;100.00
52975;BME280;38839;45.186;5.720;2023-06-14T04:41:43;98569.19;;;19.09;100.00
52975;BME280;38839;45.186;5.720;2023-06-14T04:44:13;98568.19;;;19.12;100.00
52975;BME280;38839;45.186;5.720;2023-06-14T04:46:39;98573.78;;;19.05;100.00
52975;BME280;38839;45.186;5.720;2023-06-14T04:49:14;98565.75;;;19.07;100.00
52975;BME280;38839;45.186;5.720;2023-06-14T04:51:44;98562.97;;;19.10;100.00
52975;BME280;38839;45.186;5.720;2023-06-14T04:54:10;98567.84;;;19.00;100.00
52975;BME280;38839;45.186;5.720;2023-06-14T04:56:39;98562.47;;;19.02;100.00
52975;BME280;38839;45.186;5.720;2023-06-14T04:59:05;98566.81;;;19.03;100.00
52975;BME280;38839;45.186;5.720;2023-06-14T05:01:31;98567.78;;;19.02;100.00
52975;BME280;38839;45.186;5.720;2023-06-14T05:03:57;98573.31;;;19.15;100.00
52975;BME280;38839;45.186;5.720;2023-06-14T05:06:23;98571.75;;;19.10;100.00
52975;BME280;38839;45.186;5.720;2023-06-14T05:08:49;98570.75;;;19.13;100.00
52975;BME280;38839;45.186;5.720;2023-06-14T05:11:14;98568.03;;;19.15;100.00
52975;BME280;38839;45.186;5.720;2023-06-14T05:13:40;98572.78;;;19.08;100.00
52975;BME280;38839;45.186;5.720;2023-06-14T05:16:06;98572.59;;;19.11;100.00
52975;BME280;38839;45.186;5.720;2023-06-14T05:18:31;98578.50;;;19.18;100.00
52975;BME280;38839;45.186;5.720;2023-06-14T05:20:59;98572.81;;;19.25;100.00
52975;BME280;38839;45.186;5.720;2023-06-14T05:23:25;98581.91;;;19.20;100.00
52975;BME280;38839;45.186;5.720;2023-06-14T05:25:50;98579.34;;;19.18;100.00
52975;BME280;38839;45.186;5.720;2023-06-14T05:28:16;98582.09;;;19.15;100.00
52975;BME280;38839;45.186;5.720;2023-06-14T05:30:42;98580.75;;;19.25;100.00
52975;BME280;38839;45.186;5.720;2023-06-14T05:33:07;98578.47;;;19.37;100.00
52975;BME280;38839;45.186;5.720;2023-06-14T05:35:33;98579.19;;;19.40;100.00
52975;BME280;38839;45.186;5.720;2023-06-14T05:37:58;98582.91;;;19.36;100.00
52975;BME280;38839;45.186;5.720;2023-06-14T05:40:23;98581.63;;;19.26;100.00
52975;BME280;38839;45.186;5.720;2023-06-14T05:42:49;98590.53;;;19.23;100.00
52975;BME280;38839;45.186;5.720;2023-06-14T05:45:14;98588.97;;;19.19;100.00
52975;BME280;38839;45.186;5.720;2023-06-14T05:47:41;98590.75;;;19.19;100.00
52975;BME280;38839;45.186;5.720;2023-06-14T05:50:07;98592.06;;;19.10;100.00
52975;BME280;38839;45.186;5.720;2023-06-14T05:52:33;98594.34;;;19.18;100.00
52975;BME280;38839;45.186;5.720;2023-06-14T05:54:59;98590.34;;;19.09;100.00
52975;BME280;38839;45.186;5.720;2023-06-14T05:57:25;98584.91;;;19.12;100.00
52975;BME280;38839;45.186;5.720;2023-06-14T05:59:50;98593.69;;;19.13;100.00
52975;BME280;38839;45.186;5.720;2023-06-14T06:02:16;98591.91;;;19.13;100.00
52975;BME280;38839;45.186;5.720;2023-06-14T06:04:42;98592.63;;;19.17;100.00
52975;BME280;38839;45.186;5.720;2023-06-14T06:07:07;98586.31;;;19.19;100.00
52975;BME280;38839;45.186;5.720;2023-06-14T06:09:32;98591.47;;;19.22;100.00
52975;BME280;38839;45.186;5.720;2023-06-14T06:11:58;98587.31;;;19.36;100.00
52975;BME280;38839;45.186;5.720;2023-06-14T06:14:24;98588.97;;;19.38;100.00
52975;BME280;38839;45.186;5.720;2023-06-14T06:16:50;98588.28;;;19.52;100.00
52975;BME280;38839;45.186;5.720;2023-06-14T06:19:17;98591.88;;;19.51;100.00
52975;BME280;38839;45.186;5.720;2023-06-14T06:21:43;98585.25;;;19.42;100.00
52975;BME280;38839;45.186;5.720;2023-06-14T06:24:08;98581.66;;;19.43;100.00
52975;BME280;38839;45.186;5.720;2023-06-14T06:26:34;98580.56;;;19.47;100.00
52975;BME280;38839;45.186;5.720;2023-06-14T06:28:59;98583.69;;;19.56;100.00
52975;BME280;38839;45.186;5.720;2023-06-14T06:31:24;98577.50;;;19.57;100.00
52975;BME280;38839;45.186;5.720;2023-06-14T06:33:50;98573.97;;;19.56;100.00
52975;BME280;38839;45.186;5.720;2023-06-14T06:36:16;98570.53;;;19.73;100.00
52975;BME280;38839;45.186;5.720;2023-06-14T06:38:41;98559.47;;;19.82;100.00
52975;BME280;38839;45.186;5.720;2023-06-14T06:41:07;98559.88;;;19.92;100.00
52975;BME280;38839;45.186;5.720;2023-06-14T06:43:32;98563.44;;;20.26;100.00
52975;BME280;38839;45.186;5.720;2023-06-14T06:45:58;98578.38;;;20.62;100.00
52975;BME280;38839;45.186;5.720;2023-06-14T06:48:23;98583.59;;;20.79;100.00
52975;BME280;38839;45.186;5.720;2023-06-14T06:50:48;98587.75;;;21.01;100.00
52975;BME280;38839;45.186;5.720;2023-06-14T06:53:14;98586.09;;;20.82;100.00
52975;BME280;38839;45.186;5.720;2023-06-14T06:55:39;98578.63;;;20.73;100.00
52975;BME280;38839;45.186;5.720;2023-06-14T06:58:04;98576.94;;;20.72;100.00
52975;BME280;38839;45.186;5.720;2023-06-14T07:00:30;98583.56;;;20.97;100.00
52975;BME280;38839;45.186;5.720;2023-06-14T07:02:56;98577.56;;;21.41;100.00
52975;BME280;38839;45.186;5.720;2023-06-14T07:05:22;98583.75;;;21.25;100.00
52975;BME280;38839;45.186;5.720;2023-06-14T07:07:47;98587.59;;;21.36;100.00
52975;BME280;38839;45.186;5.720;2023-06-14T07:10:12;98584.28;;;21.48;100.00
52975;BME280;38839;45.186;5.720;2023-06-14T07:12:38;98585.47;;;21.58;100.00
52975;BME280;38839;45.186;5.720;2023-06-14T07:15:06;98592.75;;;22.01;100.00
52975;BME280;38839;45.186;5.720;2023-06-14T07:17:32;98590.22;;;22.14;100.00
52975;BME280;38839;45.186;5.720;2023-06-14T07:19:59;98595.31;;;22.17;100.00
52975;BME280;38839;45.186;5.720;2023-06-14T07:22:24;98601.69;;;22.14;100.00
52975;BME280;38839;45.186;5.720;2023-06-14T07:24:50;98592.72;;;22.31;100.00
52975;BME280;38839;45.186;5.720;2023-06-14T07:27:15;98595.16;;;22.20;100.00
52975;BME280;38839;45.186;5.720;2023-06-14T07:29:41;98608.31;;;22.37;100.00
52975;BME280;38839;45.186;5.720;2023-06-14T07:32:06;98600.47;;;22.64;100.00
52975;BME280;38839;45.186;5.720;2023-06-14T07:34:32;98603.56;;;22.12;100.00
52975;BME280;38839;45.186;5.720;2023-06-14T07:36:57;98601.72;;;21.36;100.00
52975;BME280;38839;45.186;5.720;2023-06-14T07:39:23;98600.13;;;21.49;100.00
52975;BME280;38839;45.186;5.720;2023-06-14T07:41:48;98598.09;;;21.85;100.00
52975;BME280;38839;45.186;5.720;2023-06-14T07:44:14;98602.16;;;22.21;100.00
52975;BME280;38839;45.186;5.720;2023-06-14T07:46:41;98599.28;;;22.25;100.00
52975;BME280;38839;45.186;5.720;2023-06-14T07:49:06;98604.72;;;22.38;100.00
52975;BME280;38839;45.186;5.720;2023-06-14T07:51:32;98602.53;;;22.15;100.00
52975;BME280;38839;45.186;5.720;2023-06-14T07:53:59;98596.72;;;22.24;100.00
52975;BME280;38839;45.186;5.720;2023-06-14T07:56:26;98597.72;;;22.21;100.00
52975;BME280;38839;45.186;5.720;2023-06-14T07:58:51;98603.09;;;21.59;100.00
52975;BME280;38839;45.186;5.720;2023-06-14T08:01:17;98595.81;;;21.47;100.00
52975;BME280;38839;45.186;5.720;2023-06-14T08:03:42;98597.94;;;22.02;100.00
52975;BME280;38839;45.186;5.720;2023-06-14T08:06:08;98600.38;;;23.09;100.00
52975;BME280;38839;45.186;5.720;2023-06-14T08:08:33;98587.00;;;23.79;100.00
52975;BME280;38839;45.186;5.720;2023-06-14T08:10:59;98597.59;;;22.53;100.00
52975;BME280;38839;45.186;5.720;2023-06-14T08:13:24;98596.94;;;22.78;100.00
52975;BME280;38839;45.186;5.720;2023-06-14T08:15:49;98597.06;;;22.91;100.00
52975;BME280;38839;45.186;5.720;2023-06-14T08:18:15;98596.00;;;23.22;100.00
52975;BME280;38839;45.186;5.720;2023-06-14T08:20:40;98591.69;;;23.34;100.00
52975;BME280;38839;45.186;5.720;2023-06-14T08:23:06;98584.97;;;23.83;100.00
52975;BME280;38839;45.186;5.720;2023-06-14T08:25:32;98581.97;;;24.40;100.00
52975;BME280;38839;45.186;5.720;2023-06-14T08:27:58;98580.50;;;24.49;99.59
52975;BME280;38839;45.186;5.720;2023-06-14T08:30:23;98585.28;;;24.31;99.23
52975;BME280;38839;45.186;5.720;2023-06-14T08:32:49;98585.13;;;25.22;95.23
52975;BME280;38839;45.186;5.720;2023-06-14T08:35:15;98587.06;;;25.81;90.81
52975;BME280;38839;45.186;5.720;2023-06-14T08:37:41;98588.69;;;26.77;86.33
52975;BME280;38839;45.186;5.720;2023-06-14T08:40:17;98579.72;;;25.96;81.71
52975;BME280;38839;45.186;5.720;2023-06-14T08:42:43;98586.97;;;26.99;80.07
52975;BME280;38839;45.186;5.720;2023-06-14T08:45:10;98585.75;;;27.25;79.29
52975;BME280;38839;45.186;5.720;2023-06-14T08:47:36;98579.31;;;27.72;77.54
52975;BME280;38839;45.186;5.720;2023-06-14T08:50:02;98582.94;;;27.38;76.78
52975;BME280;38839;45.186;5.720;2023-06-14T08:52:31;98580.41;;;28.01;76.02
52975;BME280;38839;45.186;5.720;2023-06-14T08:54:59;98575.19;;;28.63;73.33
52975;BME280;38839;45.186;5.720;2023-06-14T08:57:26;98569.38;;;28.88;70.82
52975;BME280;38839;45.186;5.720;2023-06-14T08:59:56;98571.81;;;29.42;69.04
52975;BME280;38839;45.186;5.720;2023-06-14T09:02:22;98566.00;;;30.54;65.69
52975;BME280;38839;45.186;5.720;2023-06-14T09:04:47;98569.16;;;30.86;61.85
52975;BME280;38839;45.186;5.720;2023-06-14T09:07:14;98565.66;;;31.95;58.84
52975;BME280;38839;45.186;5.720;2023-06-14T09:09:40;98566.69;;;32.82;55.89
52975;BME280;38839;45.186;5.720;2023-06-14T09:12:08;98567.16;;;32.52;53.69
52975;BME280;38839;45.186;5.720;2023-06-14T09:14:35;98566.91;;;32.19;53.99
52975;BME280;38839;45.186;5.720;2023-06-14T09:17:04;98561.84;;;31.62;52.96
52975;BME280;38839;45.186;5.720;2023-06-14T09:19:29;98563.53;;;31.35;54.89
52975;BME280;38839;45.186;5.720;2023-06-14T09:21:54;98562.03;;;32.66;50.90
52975;BME280;38839;45.186;5.720;2023-06-14T09:24:20;98562.03;;;32.66;50.31
52975;BME280;38839;45.186;5.720;2023-06-14T09:26:50;98560.25;;;32.83;48.09
52975;BME280;38839;45.186;5.720;2023-06-14T09:29:16;98554.97;;;34.57;45.18
52975;BME280;38839;45.186;5.720;2023-06-14T09:31:42;98557.66;;;35.84;41.45
52975;BME280;38839;45.186;5.720;2023-06-14T09:34:09;98558.25;;;33.87;43.35
52975;BME280;38839;45.186;5.720;2023-06-14T09:36:34;98559.69;;;30.25;51.39
52975;BME280;38839;45.186;5.720;2023-06-14T09:39:02;98555.97;;;28.37;56.07
52975;BME280;38839;45.186;5.720;2023-06-14T09:41:39;98555.59;;;27.56;59.78
52975;BME280;38839;45.186;5.720;2023-06-14T09:44:09;98558.44;;;27.43;61.24
52975;BME280;38839;45.186;5.720;2023-06-14T09:46:36;98554.34;;;27.05;62.52
52975;BME280;38839;45.186;5.720;2023-06-14T09:49:02;98553.88;;;26.66;63.95
52975;BME280;38839;45.186;5.720;2023-06-14T09:51:28;98550.28;;;26.20;65.91
52975;BME280;38839;45.186;5.720;2023-06-14T09:54:02;98551.66;;;25.66;68.82
52975;BME280;38839;45.186;5.720;2023-06-14T09:56:32;98551.03;;;25.63;69.92
52975;BME280;38839;45.186;5.720;2023-06-14T09:58:59;98549.84;;;25.91;68.78
52975;BME280;38839;45.186;5.720;2023-06-14T10:01:26;98550.69;;;26.38;68.37
52975;BME280;38839;45.186;5.720;2023-06-14T10:04:02;98561.97;;;26.30;68.44
52975;BME280;38839;45.186;5.720;2023-06-14T10:06:29;98552.34;;;26.28;68.54
52975;BME280;38839;45.186;5.720;2023-06-14T10:08:57;98560.28;;;26.29;68.64
52975;BME280;38839;45.186;5.720;2023-06-14T10:11:25;98554.25;;;26.15;69.46
52975;BME280;38839;45.186;5.720;2023-06-14T10:13:51;98558.13;;;26.10;68.70
52975;BME280;38839;45.186;5.720;2023-06-14T10:16:20;98564.56;;;26.55;68.20
52975;BME280;38839;45.186;5.720;2023-06-14T10:19:00;98557.22;;;26.34;67.16
52975;BME280;38839;45.186;5.720;2023-06-14T10:24:29;98549.78;;;26.15;68.70
52975;BME280;38839;45.186;5.720;2023-06-14T10:26:57;98549.66;;;26.17;69.74
52975;BME280;38839;45.186;5.720;2023-06-14T10:29:23;98535.81;;;26.23;69.81
52975;BME280;38839;45.186;5.720;2023-06-14T10:31:50;98535.75;;;26.69;69.39
52975;BME280;38839;45.186;5.720;2023-06-14T10:34:28;98529.53;;;27.03;68.27
52975;BME280;38839;45.186;5.720;2023-06-14T10:37:26;98542.63;;;27.17;67.22
52975;BME280;38839;45.186;5.720;2023-06-14T10:39:51;98539.03;;;26.96;68.11
52975;BME280;38839;45.186;5.720;2023-06-14T10:42:18;98538.78;;;26.76;68.24
52975;BME280;38839;45.186;5.720;2023-06-14T10:44:51;98527.09;;;26.55;67.32
52975;BME280;38839;45.186;5.720;2023-06-14T10:49:52;98532.41;;;26.21;67.89
52975;BME280;38839;45.186;5.720;2023-06-14T10:52:24;98527.72;;;26.00;69.93
52975;BME280;38839;45.186;5.720;2023-06-14T10:57:26;98523.13;;;25.91;69.97
52975;BME280;38839;45.186;5.720;2023-06-14T10:59:52;98521.06;;;25.95;70.19
52975;BME280;38839;45.186;5.720;2023-06-14T11:05:15;98527.16;;;26.08;70.13
52975;BME280;38839;45.186;5.720;2023-06-14T11:08:02;98520.97;;;26.07;69.73
52975;BME280;38839;45.186;5.720;2023-06-14T11:10:36;98528.63;;;25.77;68.33
52975;BME280;38839;45.186;5.720;2023-06-14T11:13:02;98512.38;;;26.15;69.34
52975;BME280;38839;45.186;5.720;2023-06-14T11:15:31;98515.78;;;26.40;66.57
52975;BME280;38839;45.186;5.720;2023-06-14T11:17:58;98518.09;;;26.44;66.26
52975;BME280;38839;45.186;5.720;2023-06-14T11:20:26;98517.63;;;26.62;65.39
52975;BME280;38839;45.186;5.720;2023-06-14T11:22:52;98511.56;;;26.60;65.26
52975;BME280;38839;45.186;5.720;2023-06-14T11:25:18;98510.19;;;26.43;64.40
52975;BME280;38839;45.186;5.720;2023-06-14T11:27:45;98508.41;;;25.61;64.68
52975;BME280;38839;45.186;5.720;2023-06-14T11:30:11;98506.78;;;25.83;65.52
52975;BME280;38839;45.186;5.720;2023-06-14T11:32:38;98501.06;;;26.34;64.19
52975;BME280;38839;45.186;5.720;2023-06-14T11:35:04;98509.09;;;26.45;63.34
52975;BME280;38839;45.186;5.720;2023-06-14T11:37:30;98505.59;;;26.67;61.82
52975;BME280;38839;45.186;5.720;2023-06-14T11:40:00;98510.06;;;26.33;58.69
52975;BME280;38839;45.186;5.720;2023-06-14T11:42:28;98493.53;;;26.39;58.33
52975;BME280;38839;45.186;5.720;2023-06-14T11:44:55;98493.66;;;26.49;57.56
52975;BME280;38839;45.186;5.720;2023-06-14T11:47:21;98490.53;;;26.66;57.42
52975;BME280;38839;45.186;5.720;2023-06-14T11:49:47;98482.38;;;26.68;56.72
52975;BME280;38839;45.186;5.720;2023-06-14T11:52:13;98480.88;;;26.86;55.21
52975;BME280;38839;45.186;5.720;2023-06-14T11:54:39;98484.44;;;27.19;53.83
52975;BME280;38839;45.186;5.720;2023-06-14T11:57:06;98478.84;;;27.34;50.78
52975;BME280;38839;45.186;5.720;2023-06-14T11:59:33;98478.31;;;27.40;50.77
52975;BME280;38839;45.186;5.720;2023-06-14T12:02:03;98470.50;;;27.48;49.21
52975;BME280;38839;45.186;5.720;2023-06-14T12:04:29;98465.81;;;27.61;49.42
52975;BME280;38839;45.186;5.720;2023-06-14T12:06:55;98478.75;;;27.56;48.90
52975;BME280;38839;45.186;5.720;2023-06-14T12:09:23;98474.31;;;27.66;48.07
52975;BME280;38839;45.186;5.720;2023-06-14T12:11:49;98479.75;;;27.55;47.27
52975;BME280;38839;45.186;5.720;2023-06-14T12:14:15;98478.22;;;27.62;47.56
52975;BME280;38839;45.186;5.720;2023-06-14T12:16:42;98480.97;;;27.51;46.95
52975;BME280;38839;45.186;5.720;2023-06-14T12:19:15;98458.09;;;27.47;46.59
52975;BME280;38839;45.186;5.720;2023-06-14T12:21:41;98479.94;;;27.31;45.32
52975;BME280;38839;45.186;5.720;2023-06-14T12:24:07;98477.16;;;27.33;44.89
52975;BME280;38839;45.186;5.720;2023-06-14T12:26:33;98468.94;;;27.66;44.11
52975;BME280;38839;45.186;5.720;2023-06-14T12:29:05;98467.25;;;27.65;42.58
52975;BME280;38839;45.186;5.720;2023-06-14T12:31:30;98478.50;;;27.59;42.37
52975;BME280;38839;45.186;5.720;2023-06-14T12:33:56;98468.00;;;27.67;41.73
52975;BME280;38839;45.186;5.720;2023-06-14T12:36:21;98462.31;;;27.82;41.84
52975;BME280;38839;45.186;5.720;2023-06-14T12:38:47;98468.78;;;28.00;41.32
52975;BME280;38839;45.186;5.720;2023-06-14T12:41:13;98468.34;;;27.95;40.73
52975;BME280;38839;45.186;5.720;2023-06-14T12:43:39;98464.25;;;27.80;39.96
52975;BME280;38839;45.186;5.720;2023-06-14T12:46:05;98470.56;;;27.90;40.31
52975;BME280;38839;45.186;5.720;2023-06-14T12:48:31;98457.72;;;27.73;39.80
52975;BME280;38839;45.186;5.720;2023-06-14T12:50:57;98465.31;;;27.67;39.47
52975;BME280;38839;45.186;5.720;2023-06-14T12:53:23;98464.31;;;27.68;38.44
52975;BME280;38839;45.186;5.720;2023-06-14T12:55:49;98467.47;;;27.53;38.23
52975;BME280;38839;45.186;5.720;2023-06-14T12:58:14;98468.94;;;27.45;38.77
52975;BME280;38839;45.186;5.720;2023-06-14T13:00:42;98459.56;;;27.40;39.13